createdAt,value
2018-09-13T00:01:05.511Z,4.35
2018-09-13T00:03:33.259Z,5.97
2018-09-13T00:06:00.952Z,6.62
2018-09-13T00:08:28.811Z,5.42
2018-09-13T00:10:56.333Z,5.42
2018-09-13T00:13:24.097Z,5.28
2018-09-13T00:15:51.836Z,6.50
2018-09-13T00:18:19.377Z,6.50
2018-09-13T00:20:46.901Z,4.30
2018-09-13T00:23:14.580Z,5.55
2018-09-13T00:25:42.078Z,5.77
2018-09-13T00:28:09.563Z,5.25
2018-09-13T00:30:37.108Z,3.85
2018-09-13T00:33:04.583Z,4.55
2018-09-13T00:35:32.141Z,4.28
2018-09-13T00:37:59.642Z,5.08
2018-09-13T00:40:27.401Z,4.83
2018-09-13T00:42:54.946Z,4.12
2018-09-13T00:45:22.496Z,4.17
2018-09-13T00:47:50.364Z,4.37
2018-09-13T00:50:17.840Z,5.13
2018-09-13T00:52:45.595Z,4.50
2018-09-13T00:55:13.043Z,10.23
2018-09-13T00:57:40.541Z,4.40
2018-09-13T01:00:08.336Z,6.10
2018-09-13T01:02:36.241Z,5.87
2018-09-13T01:05:03.789Z,4.20
2018-09-13T01:07:31.764Z,5.20
2018-09-13T01:09:59.866Z,6.15
2018-09-13T01:12:27.624Z,7.15
2018-09-13T01:14:55.157Z,6.67
2018-09-13T01:17:22.924Z,6.30
2018-09-13T01:19:50.428Z,5.47
2018-09-13T01:22:18.347Z,5.33
2018-09-13T01:24:45.805Z,4.47
2018-09-13T01:27:13.336Z,6.45
2018-09-13T01:29:40.844Z,7.90
2018-09-13T01:32:08.349Z,7.47
2018-09-13T01:34:35.863Z,8.93
2018-09-13T01:37:03.808Z,7.63
2018-09-13T01:39:31.298Z,6.90
2018-09-13T01:41:59.144Z,8.38
2018-09-13T01:44:26.623Z,7.47
2018-09-13T01:46:54.160Z,6.30
2018-09-13T01:49:21.647Z,8.37
2018-09-13T01:51:49.072Z,7.83
2018-09-13T01:54:17.148Z,8.08
2018-09-13T01:56:44.908Z,8.65
2018-09-13T01:59:12.567Z,7.87
2018-09-13T02:01:40.341Z,9.25
2018-09-13T02:04:07.892Z,14.47
2018-09-13T02:06:35.416Z,17.67
2018-09-13T02:09:03.082Z,10.50
2018-09-13T02:11:30.578Z,15.65
2018-09-13T02:13:58.080Z,11.40
2018-09-13T02:16:25.536Z,13.10
2018-09-13T02:18:53.051Z,12.50
2018-09-13T02:21:20.511Z,13.88
2018-09-13T02:23:48.161Z,18.10
2018-09-13T02:26:15.949Z,16.55
2018-09-13T02:28:43.477Z,20.27
2018-09-13T02:31:11.013Z,25.52
2018-09-13T02:33:38.556Z,20.30
2018-09-13T02:36:06.061Z,16.87
2018-09-13T02:38:33.894Z,12.60
2018-09-13T02:41:01.388Z,16.85
2018-09-13T02:43:29.407Z,15.10
2018-09-13T02:45:56.942Z,17.00
2018-09-13T02:48:24.364Z,15.80
2018-09-13T02:50:51.867Z,17.23
2018-09-13T02:53:19.950Z,18.10
2018-09-13T02:55:47.826Z,16.00
2018-09-13T02:58:15.513Z,13.35
2018-09-13T03:00:43.669Z,12.80
2018-09-13T03:03:11.212Z,18.43
2018-09-13T03:05:38.919Z,15.08
2018-09-13T03:08:06.395Z,18.27
2018-09-13T03:10:33.887Z,15.95
2018-09-13T03:13:01.511Z,16.30
2018-09-13T03:15:28.962Z,13.32
2018-09-13T03:17:56.513Z,14.23
2018-09-13T03:20:24.413Z,17.60
2018-09-13T03:22:52.205Z,13.18
2018-09-13T03:25:19.708Z,16.62
2018-09-13T03:27:47.580Z,19.57
2018-09-13T03:30:15.511Z,16.43
2018-09-13T03:32:43.000Z,19.27
2018-09-13T03:35:10.543Z,17.20
2018-09-13T03:37:38.389Z,19.52
2018-09-13T03:40:05.907Z,20.62
2018-09-13T03:42:33.735Z,17.30
2018-09-13T03:45:01.314Z,17.40
2018-09-13T03:47:29.099Z,20.57
2018-09-13T03:49:56.918Z,20.27
2018-09-13T03:52:24.740Z,17.17
2018-09-13T03:54:52.562Z,15.30
2018-09-13T03:57:20.077Z,19.55
2018-09-13T03:59:47.613Z,21.42
2018-09-13T04:02:15.104Z,26.55
2018-09-13T04:04:42.883Z,15.98
2018-09-13T04:07:10.464Z,15.88
2018-09-13T04:09:38.688Z,17.35
2018-09-13T04:12:06.185Z,18.32
2018-09-13T04:14:34.124Z,20.02
2018-09-13T04:17:01.592Z,17.32
2018-09-13T04:19:41.705Z,18.05
2018-09-13T04:22:09.182Z,17.77
2018-09-13T04:24:37.084Z,18.23
2018-09-13T04:27:04.931Z,17.35
2018-09-13T04:29:32.751Z,17.15
2018-09-13T04:32:00.577Z,24.35
2018-09-13T04:34:28.060Z,18.02
2018-09-13T04:36:55.827Z,17.55
2018-09-13T04:39:23.356Z,19.02
2018-09-13T04:41:51.104Z,21.33
2018-09-13T04:44:19.021Z,16.02
2018-09-13T04:46:46.530Z,18.95
2018-09-13T04:49:14.443Z,19.05
2018-09-13T04:51:42.264Z,22.02
2018-09-13T04:54:10.331Z,22.48
2018-09-13T04:56:38.101Z,18.32
2018-09-13T04:59:05.758Z,18.15
2018-09-13T05:01:33.244Z,25.62
2018-09-13T05:04:00.980Z,17.47
2018-09-13T05:06:28.827Z,18.57
2018-09-13T05:08:56.315Z,17.87
2018-09-13T05:11:23.924Z,20.02
2018-09-13T05:13:51.616Z,16.80
2018-09-13T05:16:19.395Z,14.40
2018-09-13T05:18:46.873Z,16.87
2018-09-13T05:21:14.619Z,15.50
2018-09-13T05:23:42.796Z,15.90
2018-09-13T05:26:10.551Z,20.05
2018-09-13T05:28:38.304Z,16.45
2018-09-13T05:31:06.292Z,17.27
2018-09-13T05:33:33.848Z,19.65
2018-09-13T05:36:01.296Z,17.07
2018-09-13T05:38:29.142Z,16.50
2018-09-13T05:40:56.840Z,15.50
2018-09-13T05:43:24.746Z,18.55
2018-09-13T05:45:52.287Z,18.92
2018-09-13T05:48:20.053Z,18.85
2018-09-13T05:50:47.593Z,28.17
2018-09-13T05:53:15.091Z,17.12
2018-09-13T05:55:42.600Z,18.17
2018-09-13T05:58:10.132Z,20.65
2018-09-13T06:00:38.240Z,20.45
2018-09-13T06:03:06.014Z,17.52
2018-09-13T06:05:34.389Z,19.67
2018-09-13T06:08:01.961Z,19.02
2018-09-13T06:10:30.533Z,16.20
2018-09-13T06:12:58.292Z,15.00
2018-09-13T06:15:25.802Z,16.93
2018-09-13T06:17:53.724Z,16.60
2018-09-13T06:20:21.205Z,15.10
2018-09-13T06:22:48.933Z,12.23
2018-09-13T06:25:16.745Z,15.80
2018-09-13T06:27:44.425Z,12.58
2018-09-13T06:30:11.881Z,14.30
2018-09-13T06:32:39.364Z,14.53
2018-09-13T06:35:06.842Z,15.78
2018-09-13T06:37:34.357Z,13.93
2018-09-13T06:40:02.098Z,13.10
2018-09-13T06:42:30.291Z,13.75
2018-09-13T06:44:58.151Z,13.53
2018-09-13T06:47:25.637Z,13.13
2018-09-13T06:49:53.264Z,14.23
2018-09-13T06:52:20.989Z,14.87
2018-09-13T06:54:48.560Z,16.37
2018-09-13T06:57:16.528Z,17.32
2018-09-13T06:59:44.296Z,18.75
2018-09-13T07:02:11.817Z,16.70
2018-09-13T07:04:39.960Z,14.80
2018-09-13T07:07:07.593Z,15.00
2018-09-13T07:09:35.312Z,19.45
2018-09-13T07:12:03.149Z,13.93
2018-09-13T07:14:30.760Z,17.05
2018-09-13T07:16:58.677Z,16.93
2018-09-13T07:19:26.346Z,18.80
2018-09-13T07:21:54.683Z,16.37
2018-09-13T07:24:22.167Z,21.00
2018-09-13T07:26:49.604Z,16.30
2018-09-13T07:29:17.744Z,16.45
2018-09-13T07:31:46.232Z,17.02
2018-09-13T07:34:14.663Z,14.70
2018-09-13T07:36:43.278Z,19.35
2018-09-13T07:39:12.468Z,15.03
2018-09-13T07:41:40.096Z,22.42
2018-09-13T07:44:07.704Z,15.70
2018-09-13T07:46:35.886Z,17.37
2018-09-13T07:49:03.584Z,15.72
2018-09-13T07:51:31.480Z,14.57
2018-09-13T07:53:59.230Z,15.90
2018-09-13T07:56:26.913Z,14.25
2018-09-13T07:58:54.421Z,12.33
2018-09-13T08:01:22.212Z,14.13
2018-09-13T08:03:49.711Z,12.17
2018-09-13T08:06:17.307Z,17.20
2018-09-13T08:08:44.764Z,13.85
2018-09-13T08:11:12.331Z,11.40
2018-09-13T08:13:40.045Z,11.93
2018-09-13T08:16:07.921Z,9.87
2018-09-13T08:18:35.742Z,11.15
2018-09-13T08:21:03.452Z,16.20
2018-09-13T08:23:31.534Z,14.58
2018-09-13T08:25:59.365Z,13.58
2018-09-13T08:28:27.188Z,13.32
2018-09-13T08:30:54.803Z,11.73
2018-09-13T08:33:22.981Z,12.90
2018-09-13T08:35:50.516Z,12.13
2018-09-13T08:38:18.078Z,12.80
2018-09-13T08:40:46.543Z,15.23
2018-09-13T08:43:14.070Z,10.78
2018-09-13T08:45:41.968Z,11.25
2018-09-13T08:48:09.735Z,9.78
2018-09-13T08:50:38.017Z,11.12
2018-09-13T08:53:06.129Z,9.70
2018-09-13T08:55:33.960Z,11.55
2018-09-13T08:58:02.056Z,10.63
2018-09-13T09:00:30.112Z,11.40
2018-09-13T09:02:57.571Z,11.22
2018-09-13T09:05:25.377Z,8.80
2018-09-13T09:07:53.392Z,33.15
2018-09-13T09:10:21.071Z,11.70
2018-09-13T09:12:48.861Z,10.18
2018-09-13T09:15:16.581Z,11.80
2018-09-13T09:17:44.596Z,9.63
2018-09-13T09:20:12.055Z,17.67
2018-09-13T09:22:39.815Z,20.92
2018-09-13T09:25:07.330Z,10.30
2018-09-13T09:27:34.833Z,9.83
2018-09-13T09:30:02.694Z,10.47
2018-09-13T09:32:30.152Z,8.23
2018-09-13T09:34:57.804Z,9.43
2018-09-13T09:37:25.956Z,11.63
2018-09-13T09:39:53.496Z,9.13
2018-09-13T09:42:21.097Z,8.93
2018-09-13T09:44:48.940Z,7.30
2018-09-13T09:47:16.440Z,6.73
2018-09-13T09:49:43.976Z,9.63
2018-09-13T09:52:11.510Z,10.38
2018-09-13T09:54:39.259Z,10.70
2018-09-13T09:57:07.355Z,14.50
2018-09-13T09:59:35.170Z,13.13
2018-09-13T10:02:08.041Z,8.67
2018-09-13T10:04:36.033Z,7.60
2018-09-13T10:07:03.611Z,8.78
2018-09-13T10:09:31.120Z,6.00
2018-09-13T10:11:58.653Z,11.63
2018-09-13T10:14:26.262Z,7.15
2018-09-13T10:16:59.293Z,11.63
2018-09-13T10:20:36.915Z,9.85
2018-09-13T10:23:09.909Z,8.25
2018-09-13T10:25:43.700Z,9.48
2018-09-13T10:28:16.576Z,7.57
2018-09-13T10:30:49.351Z,9.50
2018-09-13T10:33:22.280Z,12.83
2018-09-13T10:35:55.400Z,10.78
2018-09-13T10:38:28.198Z,8.03
2018-09-13T10:41:01.826Z,7.87
2018-09-13T10:43:34.842Z,8.35
2018-09-13T10:46:08.260Z,5.87
2018-09-13T10:48:35.843Z,8.70
2018-09-13T10:51:08.837Z,10.85
2018-09-13T10:53:44.030Z,9.63
2018-09-13T10:56:12.503Z,10.75
2018-09-13T10:58:40.491Z,10.68
2018-09-13T11:01:08.068Z,6.62
2018-09-13T11:03:35.604Z,8.83
2018-09-13T11:06:03.255Z,12.93
2018-09-13T11:08:30.756Z,10.57
2018-09-13T11:10:58.496Z,8.85
2018-09-13T11:13:32.696Z,7.95
2018-09-13T11:16:00.323Z,9.55
2018-09-13T11:18:28.047Z,6.75
2018-09-13T11:20:55.521Z,7.45
2018-09-13T11:23:22.989Z,8.45
2018-09-13T11:25:50.641Z,7.75
2018-09-13T11:28:18.340Z,9.18
2018-09-13T11:30:50.249Z,11.30
2018-09-13T11:33:18.092Z,7.30
2018-09-13T11:35:45.936Z,6.22
2018-09-13T11:38:13.747Z,9.45
2018-09-13T11:40:41.550Z,9.25
2018-09-13T11:43:09.667Z,12.07
2018-09-13T11:45:37.272Z,9.33
2018-09-13T11:48:04.890Z,10.03
2018-09-13T11:50:33.149Z,12.13
2018-09-13T11:53:00.735Z,10.05
2018-09-13T11:55:28.813Z,10.00
2018-09-13T11:57:57.005Z,8.18
2018-09-13T12:00:25.357Z,8.85
2018-09-13T12:02:53.013Z,8.35
2018-09-13T12:05:21.648Z,8.45
2018-09-13T12:07:49.360Z,10.60
2018-09-13T12:10:17.399Z,9.83
2018-09-13T12:12:45.034Z,8.03
2018-09-13T12:15:12.806Z,12.20
2018-09-13T12:17:40.276Z,11.00
2018-09-13T12:20:07.792Z,11.18
2018-09-13T12:22:35.637Z,8.50
2018-09-13T12:25:03.564Z,8.30
2018-09-13T12:27:32.689Z,7.72
2018-09-13T12:30:00.351Z,8.80
2018-09-13T12:32:28.205Z,9.20
2018-09-13T12:34:56.279Z,8.90
2018-09-13T12:37:23.829Z,7.62
2018-09-13T12:39:51.324Z,8.23
2018-09-13T12:42:18.957Z,7.30
2018-09-13T12:44:46.668Z,9.10
2018-09-13T12:47:14.473Z,12.78
2018-09-13T12:49:41.977Z,8.93
2018-09-13T12:52:10.028Z,8.40
2018-09-13T12:54:38.145Z,10.72
2018-09-13T12:57:06.140Z,9.15
2018-09-13T12:59:33.894Z,9.75
2018-09-13T13:02:01.585Z,14.23
2018-09-13T13:04:29.258Z,9.70
2018-09-13T13:06:56.725Z,7.87
2018-09-13T13:09:24.311Z,10.48
2018-09-13T13:11:51.916Z,7.45
2018-09-13T13:14:19.635Z,8.77
2018-09-13T13:16:47.412Z,7.70
2018-09-13T13:19:14.949Z,13.03
2018-09-13T13:21:42.536Z,11.03
2018-09-13T13:24:10.653Z,9.60
2018-09-13T13:26:39.156Z,16.85
2018-09-13T13:29:07.348Z,10.65
2018-09-13T13:31:34.808Z,8.45
2018-09-13T13:34:02.751Z,8.63
2018-09-13T13:36:30.909Z,11.78
2018-09-13T13:38:58.804Z,7.65
2018-09-13T13:41:26.505Z,7.25
2018-09-13T13:43:53.991Z,8.80
2018-09-13T13:46:22.326Z,10.78
2018-09-13T13:48:50.911Z,9.27
2018-09-13T13:51:18.373Z,10.48
2018-09-13T13:53:46.028Z,7.08
2018-09-13T13:56:13.737Z,7.43
2018-09-13T13:58:41.288Z,7.62
2018-09-13T14:01:08.970Z,9.83
2018-09-13T14:03:36.748Z,6.65
2018-09-13T14:06:05.746Z,9.60
2018-09-13T14:08:33.428Z,5.60
2018-09-13T14:11:01.064Z,10.53
2018-09-13T14:13:28.785Z,9.15
2018-09-13T14:15:57.453Z,7.62
2018-09-13T14:18:25.632Z,8.65
2018-09-13T14:20:54.084Z,7.65
2018-09-13T14:23:21.739Z,9.98
2018-09-13T14:25:49.329Z,11.30
2018-09-13T14:28:17.638Z,8.25
2018-09-13T14:30:45.339Z,6.53
2018-09-13T14:33:13.133Z,9.20
2018-09-13T14:35:40.876Z,8.83
2018-09-13T14:38:08.577Z,7.23
2018-09-13T14:40:36.537Z,7.15
2018-09-13T14:43:04.547Z,7.70
2018-09-13T14:45:32.011Z,8.10
2018-09-13T14:47:59.772Z,7.80
2018-09-13T14:50:27.360Z,7.25
2018-09-13T14:52:56.194Z,9.97
2018-09-13T14:55:23.760Z,8.38
2018-09-13T14:57:51.843Z,9.30
2018-09-13T15:00:20.133Z,12.35
2018-09-13T15:02:47.722Z,6.70
2018-09-13T15:05:15.385Z,8.28
2018-09-13T15:07:43.490Z,7.70
2018-09-13T15:10:11.137Z,8.23
2018-09-13T15:12:39.737Z,6.03
2018-09-13T15:15:07.566Z,8.58
2018-09-13T15:17:35.432Z,8.97
2018-09-13T15:20:03.665Z,7.75
2018-09-13T15:22:31.084Z,11.05
2018-09-13T15:24:58.659Z,11.70
2018-09-13T15:27:27.028Z,7.42
2018-09-13T15:29:54.817Z,7.20
2018-09-13T15:32:23.767Z,7.87
2018-09-13T15:34:51.332Z,5.70
2018-09-13T15:39:11.704Z,7.83
2018-09-13T15:41:39.741Z,8.80
2018-09-13T15:44:07.347Z,8.07
2018-09-13T15:46:35.281Z,8.93
2018-09-13T15:49:02.821Z,6.63
2018-09-13T15:51:30.345Z,7.70
2018-09-13T15:53:58.431Z,6.35
2018-09-13T15:56:26.023Z,7.67
2018-09-13T15:58:54.231Z,5.87
2018-09-13T16:01:21.944Z,11.13
2018-09-13T16:03:50.696Z,7.67
2018-09-13T16:06:18.428Z,6.00
2018-09-13T16:08:46.552Z,7.22
2018-09-13T16:11:14.079Z,6.97
2018-09-13T16:13:42.364Z,7.33
2018-09-13T16:16:09.919Z,7.20
2018-09-13T16:18:38.116Z,8.13
2018-09-13T16:21:06.133Z,9.98
2018-09-13T16:23:33.688Z,6.43
2018-09-13T16:26:01.170Z,9.10
2018-09-13T16:28:29.117Z,7.80
2018-09-13T16:30:56.911Z,7.75
2018-09-13T16:33:24.913Z,9.17
2018-09-13T16:35:54.316Z,7.35
2018-09-13T16:38:31.251Z,6.37
2018-09-13T16:41:04.344Z,7.40
2018-09-13T16:44:14.017Z,9.35
2018-09-13T16:46:46.990Z,7.93
2018-09-13T16:49:15.059Z,8.63
2018-09-13T16:51:43.111Z,5.10
2018-09-13T16:54:11.060Z,6.65
2018-09-13T16:56:38.768Z,8.18
2018-09-13T16:59:07.812Z,9.13
2018-09-13T17:01:35.372Z,10.05
2018-09-13T17:04:03.931Z,13.30
2018-09-13T17:06:31.448Z,12.30
2018-09-13T17:08:58.956Z,13.00
2018-09-13T17:11:26.638Z,10.17
2018-09-13T17:13:55.275Z,11.50
2018-09-13T17:16:22.806Z,8.90
2018-09-13T17:18:50.487Z,8.85
2018-09-13T17:21:18.543Z,6.37
2018-09-13T17:23:46.709Z,6.83
2018-09-13T17:26:14.308Z,7.03
2018-09-13T17:28:41.932Z,5.87
2018-09-13T17:31:10.067Z,10.18
2018-09-13T17:33:38.055Z,8.70
2018-09-13T17:36:05.643Z,5.05
2018-09-13T17:38:33.078Z,9.28
2018-09-13T17:41:00.589Z,8.57
2018-09-13T17:43:28.234Z,11.75
2018-09-13T17:45:55.926Z,7.97
2018-09-13T17:48:23.638Z,10.55
2018-09-13T17:50:51.317Z,6.57
2018-09-13T17:53:20.750Z,6.70
2018-09-13T17:55:48.574Z,5.80
2018-09-13T17:58:16.045Z,7.92
2018-09-13T18:00:43.597Z,9.05
2018-09-13T18:03:11.526Z,7.10
2018-09-13T18:05:39.257Z,8.83
2018-09-13T18:08:06.668Z,9.28
2018-09-13T18:10:34.684Z,12.65
2018-09-13T18:13:02.449Z,12.40
2018-09-13T18:15:30.228Z,13.68
2018-09-13T18:17:57.996Z,8.60
2018-09-13T18:20:26.539Z,8.38
2018-09-13T18:22:54.145Z,7.23
2018-09-13T18:25:22.733Z,7.97
2018-09-13T18:27:50.824Z,7.60
2018-09-13T18:30:18.525Z,13.53
2018-09-13T18:32:46.213Z,13.85
2018-09-13T18:35:13.896Z,14.43
2018-09-13T18:37:41.644Z,11.70
2018-09-13T18:40:09.217Z,14.98
2018-09-13T18:42:37.589Z,16.37
2018-09-13T18:45:05.378Z,12.53
2018-09-13T18:47:32.842Z,12.18
2018-09-13T18:50:00.255Z,9.47
2018-09-13T18:52:28.148Z,9.83
2018-09-13T18:54:55.623Z,10.90
2018-09-13T18:57:23.331Z,10.18
2018-09-13T18:59:50.772Z,9.20
2018-09-13T19:02:18.408Z,12.37
2018-09-13T19:04:46.021Z,7.28
2018-09-13T19:07:13.916Z,9.80
2018-09-13T19:09:42.180Z,6.95
2018-09-13T19:12:10.380Z,7.37
2018-09-13T19:14:37.953Z,6.33
2018-09-13T19:17:06.270Z,7.92
2018-09-13T19:19:34.280Z,10.60
2018-09-13T19:22:02.044Z,9.03
2018-09-13T19:24:29.522Z,9.33
2018-09-13T19:26:57.284Z,8.53
2018-09-13T19:29:25.052Z,7.80
2018-09-13T19:31:52.570Z,10.00
2018-09-13T19:34:20.367Z,8.05
2018-09-13T19:36:48.141Z,11.55
2018-09-13T19:39:15.741Z,10.88
2018-09-13T19:41:43.722Z,9.65
2018-09-13T19:44:11.202Z,9.28
2018-09-13T19:46:38.726Z,10.08
2018-09-13T19:49:06.273Z,13.58
2018-09-13T19:51:33.922Z,8.03
2018-09-13T19:54:01.637Z,10.08
2018-09-13T19:56:29.468Z,10.15
2018-09-13T19:58:57.257Z,11.43
2018-09-13T20:01:24.779Z,11.70
2018-09-13T20:03:52.291Z,7.83
2018-09-13T20:06:19.807Z,13.60
2018-09-13T20:08:47.536Z,11.00
2018-09-13T20:11:15.292Z,9.95
2018-09-13T20:13:42.760Z,10.35
2018-09-13T20:16:10.517Z,9.38
2018-09-13T20:18:38.378Z,13.28
2018-09-13T20:21:06.427Z,10.53
2018-09-13T20:23:33.901Z,9.63
2018-09-13T20:26:01.684Z,11.15
2018-09-13T20:28:29.238Z,9.33
2018-09-13T20:30:56.711Z,11.70
2018-09-13T20:33:24.461Z,10.70
2018-09-13T20:35:52.262Z,9.13
2018-09-13T20:38:19.812Z,8.78
2018-09-13T20:40:47.325Z,15.18
2018-09-13T20:43:15.311Z,11.18
2018-09-13T20:45:42.861Z,13.13
2018-09-13T20:48:10.539Z,14.55
2018-09-13T20:50:38.213Z,8.83
2018-09-13T20:53:05.689Z,8.38
2018-09-13T20:55:33.214Z,11.43
2018-09-13T20:58:01.052Z,8.67
2018-09-13T21:00:28.512Z,9.23
2018-09-13T21:02:56.313Z,11.93
2018-09-13T21:05:24.117Z,8.65
2018-09-13T21:07:52.156Z,10.25
2018-09-13T21:10:20.015Z,12.30
2018-09-13T21:12:48.080Z,8.78
2018-09-13T21:15:15.593Z,10.20
2018-09-13T21:17:43.120Z,10.00
2018-09-13T21:20:10.666Z,10.50
2018-09-13T21:22:38.113Z,12.07
2018-09-13T21:25:05.689Z,11.40
2018-09-13T21:27:33.752Z,9.20
2018-09-13T21:30:01.264Z,11.43
2018-09-13T21:32:28.725Z,10.65
2018-09-13T21:34:56.280Z,11.77
2018-09-13T21:37:23.813Z,13.62
2018-09-13T21:39:51.321Z,12.87
2018-09-13T21:42:19.113Z,8.70
2018-09-13T21:44:46.585Z,12.10
2018-09-13T21:47:14.145Z,9.15
2018-09-13T21:49:41.972Z,11.43
2018-09-13T21:52:09.489Z,12.00
2018-09-13T21:54:37.224Z,12.13
2018-09-13T21:57:05.215Z,9.28
2018-09-13T21:59:32.688Z,11.12
2018-09-13T22:02:00.159Z,10.53
2018-09-13T22:04:27.612Z,13.22
2018-09-13T22:06:55.433Z,10.25
2018-09-13T22:09:22.914Z,10.88
2018-09-13T22:11:50.453Z,10.20
2018-09-13T22:14:17.969Z,11.70
2018-09-13T22:16:45.489Z,10.78
2018-09-13T22:19:12.943Z,8.48
2018-09-13T22:21:40.371Z,10.18
2018-09-13T22:24:07.893Z,7.83
2018-09-13T22:26:35.880Z,10.13
2018-09-13T22:29:03.500Z,11.12
2018-09-13T22:31:31.061Z,13.72
2018-09-13T22:33:58.523Z,12.30
2018-09-13T22:36:26.627Z,11.45
2018-09-13T22:38:54.464Z,12.47
2018-09-13T22:41:22.191Z,15.25
2018-09-13T22:43:50.827Z,10.38
2018-09-13T22:46:18.854Z,11.75
2018-09-13T22:48:46.673Z,13.40
2018-09-13T22:51:14.206Z,13.88
2018-09-13T22:53:41.780Z,15.23
2018-09-13T22:56:09.225Z,13.93
2018-09-13T22:58:36.955Z,16.97
2018-09-13T23:01:04.724Z,11.80
2018-09-13T23:03:32.588Z,13.35
2018-09-13T23:06:00.118Z,12.50
2018-09-13T23:08:27.618Z,14.95
2018-09-13T23:10:55.584Z,10.82
2018-09-13T23:13:23.404Z,14.90
2018-09-13T23:15:51.232Z,10.30
2018-09-13T23:18:18.751Z,10.85
2018-09-13T23:20:46.303Z,12.23
2018-09-13T23:23:13.845Z,11.48
2018-09-13T23:25:41.697Z,13.60
2018-09-13T23:28:09.203Z,9.50
2018-09-13T23:30:36.664Z,10.63
2018-09-13T23:33:04.183Z,10.35
2018-09-13T23:35:31.700Z,12.53
2018-09-13T23:37:59.221Z,10.37
2018-09-13T23:40:26.995Z,9.08
2018-09-13T23:42:54.344Z,12.67
2018-09-13T23:45:21.882Z,11.35
2018-09-13T23:47:49.705Z,14.95
2018-09-13T23:50:18.073Z,9.78
2018-09-13T23:52:45.918Z,15.43
2018-09-13T23:55:13.706Z,14.00
2018-09-13T23:57:41.190Z,12.73
